createdAt,value
2019-02-14T00:00:10.325Z,99.90
2019-02-14T00:02:38.723Z,99.90
2019-02-14T00:05:15.893Z,99.90
2019-02-14T00:07:37.436Z,99.90
2019-02-14T00:10:08.488Z,99.90
2019-02-14T00:12:36.983Z,99.90
2019-02-14T00:15:13.740Z,99.90
2019-02-14T00:17:42.172Z,99.90
2019-02-14T00:20:10.576Z,99.90
2019-02-14T00:22:38.974Z,99.90
2019-02-14T00:25:07.552Z,99.90
2019-02-14T00:27:36.020Z,99.90
2019-02-14T00:30:05.393Z,99.90
2019-02-14T00:32:33.856Z,99.90
2019-02-14T00:35:02.253Z,99.90
2019-02-14T00:37:30.730Z,99.90
2019-02-14T00:39:59.140Z,99.90
2019-02-14T00:42:27.565Z,99.90
2019-02-14T00:44:56.036Z,99.90
2019-02-14T00:47:24.440Z,99.90
2019-02-14T00:49:52.856Z,99.90
2019-02-14T00:52:21.336Z,99.90
2019-02-14T00:54:49.874Z,99.90
2019-02-14T00:57:18.274Z,99.90
2019-02-14T00:59:46.666Z,99.90
2019-02-14T01:02:15.065Z,99.90
2019-02-14T01:04:43.538Z,99.90
2019-02-14T01:07:11.974Z,99.90
2019-02-14T01:09:40.416Z,99.90
2019-02-14T01:12:09.688Z,99.90
2019-02-14T01:14:38.196Z,99.90
2019-02-14T01:17:06.614Z,99.90
2019-02-14T01:19:36.046Z,99.90
2019-02-14T01:22:04.520Z,99.90
2019-02-14T01:24:32.976Z,99.90
2019-02-14T01:27:01.385Z,99.90
2019-02-14T01:29:29.845Z,99.90
2019-02-14T01:31:58.283Z,99.90
2019-02-14T01:34:26.683Z,99.90
2019-02-14T01:36:55.128Z,99.90
2019-02-14T01:39:23.513Z,99.90
2019-02-14T01:41:52.030Z,99.90
2019-02-14T01:44:20.465Z,99.90
2019-02-14T01:46:48.873Z,99.90
2019-02-14T01:49:17.305Z,99.90
2019-02-14T01:51:45.696Z,99.90
2019-02-14T01:54:14.100Z,99.90
2019-02-14T01:56:42.533Z,99.90
2019-02-14T01:59:10.937Z,99.80
2019-02-14T02:01:39.399Z,99.90
2019-02-14T02:04:07.800Z,99.70
2019-02-14T02:06:36.203Z,99.70
2019-02-14T02:09:07.334Z,99.60
2019-02-14T02:11:35.040Z,99.50
2019-02-14T02:14:03.572Z,99.50
2019-02-14T02:16:31.977Z,99.30
2019-02-14T02:19:00.372Z,99.40
2019-02-14T02:21:29.667Z,99.40
2019-02-14T02:23:58.132Z,99.40
2019-02-14T02:26:26.539Z,99.40
2019-02-14T02:28:54.975Z,99.70
2019-02-14T02:31:23.342Z,99.30
2019-02-14T02:33:51.768Z,99.20
2019-02-14T02:36:20.174Z,99.30
2019-02-14T02:38:48.577Z,99.30
2019-02-14T02:41:17.028Z,99.30
2019-02-14T02:43:45.420Z,99.20
2019-02-14T02:46:13.901Z,99.10
2019-02-14T02:48:42.316Z,99.10
2019-02-14T02:51:10.712Z,99.10
2019-02-14T02:53:39.261Z,99.10
2019-02-14T02:56:07.667Z,99.00
2019-02-14T02:58:36.062Z,98.90
2019-02-14T03:01:04.528Z,98.90
2019-02-14T03:03:32.920Z,98.90
2019-02-14T03:06:10.311Z,98.90
2019-02-14T03:08:31.469Z,98.80
2019-02-14T03:10:59.930Z,98.70
2019-02-14T03:13:28.315Z,98.70
2019-02-14T03:15:56.736Z,98.70
2019-02-14T03:18:25.172Z,98.60
2019-02-14T03:20:53.566Z,98.60
2019-02-14T03:23:21.959Z,98.40
2019-02-14T03:25:50.397Z,98.50
2019-02-14T03:28:18.759Z,98.40
2019-02-14T03:30:47.554Z,98.30
2019-02-14T03:33:16.015Z,98.30
2019-02-14T03:35:44.402Z,98.20
2019-02-14T03:38:12.810Z,98.20
2019-02-14T03:40:41.210Z,98.00
2019-02-14T03:43:09.646Z,98.00
2019-02-14T03:45:38.046Z,97.80
2019-02-14T03:48:06.441Z,97.60
2019-02-14T03:50:34.856Z,97.60
2019-02-14T03:53:03.278Z,97.60
2019-02-14T03:55:31.704Z,97.50
2019-02-14T03:58:00.169Z,97.70
2019-02-14T04:00:28.648Z,97.80
2019-02-14T04:02:57.052Z,97.70
2019-02-14T04:05:25.461Z,97.60
2019-02-14T04:07:54.002Z,97.60
2019-02-14T04:10:22.408Z,97.40
2019-02-14T04:12:50.806Z,97.50
2019-02-14T04:15:19.274Z,97.50
2019-02-14T04:17:47.674Z,97.40
2019-02-14T04:20:16.093Z,97.50
2019-02-14T04:22:44.565Z,97.60
2019-02-14T04:25:12.966Z,97.50
2019-02-14T04:27:41.361Z,97.60
2019-02-14T04:30:13.857Z,97.70
2019-02-14T04:32:42.283Z,97.70
2019-02-14T04:35:10.713Z,97.60
2019-02-14T04:37:39.112Z,97.60
2019-02-14T04:40:10.382Z,97.60
2019-02-14T04:42:38.847Z,97.50
2019-02-14T04:45:08.204Z,97.50
2019-02-14T04:47:36.601Z,97.50
2019-02-14T04:50:07.145Z,97.90
2019-02-14T04:52:35.577Z,97.60
2019-02-14T04:55:05.617Z,97.70
2019-02-14T04:57:34.037Z,97.80
2019-02-14T05:00:02.741Z,97.80
2019-02-14T05:02:31.141Z,97.80
2019-02-14T05:04:59.550Z,97.70
2019-02-14T05:07:28.036Z,97.70
2019-02-14T05:09:56.465Z,97.50
2019-02-14T05:12:26.205Z,97.50
2019-02-14T05:14:54.664Z,97.50
2019-02-14T05:17:23.071Z,97.50
2019-02-14T05:19:51.480Z,97.60
2019-02-14T05:22:19.906Z,97.70
2019-02-14T05:24:48.312Z,97.60
2019-02-14T05:27:16.709Z,97.50
2019-02-14T05:29:45.106Z,97.50
2019-02-14T05:32:13.498Z,97.50
2019-02-14T05:34:41.961Z,97.40
2019-02-14T05:37:10.361Z,97.40
2019-02-14T05:39:38.769Z,97.40
2019-02-14T05:42:07.169Z,97.40
2019-02-14T05:44:35.564Z,97.50
2019-02-14T05:47:03.992Z,97.40
2019-02-14T05:49:32.389Z,97.60
2019-02-14T05:52:00.901Z,97.60
2019-02-14T05:54:29.320Z,97.60
2019-02-14T05:56:57.792Z,97.70
2019-02-14T05:59:26.232Z,97.70
2019-02-14T06:01:54.769Z,97.70
2019-02-14T06:04:23.181Z,97.70
2019-02-14T06:06:51.583Z,97.80
2019-02-14T06:09:20.086Z,97.80
2019-02-14T06:11:48.514Z,97.90
2019-02-14T06:14:16.943Z,97.90
2019-02-14T06:16:45.305Z,97.90
2019-02-14T06:19:13.704Z,97.90
2019-02-14T06:21:42.111Z,97.80
2019-02-14T06:24:10.597Z,97.80
2019-02-14T06:26:39.006Z,97.80
2019-02-14T06:29:07.397Z,97.60
2019-02-14T06:31:35.801Z,98.00
2019-02-14T06:34:04.209Z,97.20
2019-02-14T06:36:32.648Z,97.20
2019-02-14T06:39:01.114Z,97.10
2019-02-14T06:41:29.522Z,97.20
2019-02-14T06:43:57.958Z,97.10
2019-02-14T06:46:26.328Z,97.10
2019-02-14T06:48:54.837Z,97.00
2019-02-14T06:51:23.309Z,96.90
2019-02-14T06:53:51.702Z,96.80
2019-02-14T06:56:20.172Z,96.70
2019-02-14T06:58:48.570Z,96.60
2019-02-14T07:01:16.973Z,96.50
2019-02-14T07:03:45.400Z,96.40
2019-02-14T07:06:13.845Z,96.40
2019-02-14T07:08:42.244Z,96.30
2019-02-14T07:11:10.643Z,96.30
2019-02-14T07:13:39.060Z,96.30
2019-02-14T07:16:07.448Z,96.10
2019-02-14T07:18:35.883Z,95.80
2019-02-14T07:21:04.296Z,95.70
2019-02-14T07:23:32.682Z,95.60
2019-02-14T07:26:01.079Z,95.40
2019-02-14T07:28:29.560Z,95.40
2019-02-14T07:30:58.004Z,95.20
2019-02-14T07:33:26.396Z,95.10
2019-02-14T07:35:54.836Z,95.30
2019-02-14T07:38:23.227Z,94.80
2019-02-14T07:40:51.629Z,94.50
2019-02-14T07:43:20.034Z,94.40
2019-02-14T07:45:48.420Z,94.20
2019-02-14T07:48:16.844Z,94.00
2019-02-14T07:50:45.317Z,94.10
2019-02-14T07:53:13.724Z,93.40
2019-02-14T07:55:42.124Z,92.90
2019-02-14T07:58:10.523Z,92.70
2019-02-14T08:00:38.921Z,90.60
2019-02-14T08:03:07.318Z,87.80
2019-02-14T08:05:35.757Z,81.80
2019-02-14T08:08:04.158Z,77.00
2019-02-14T08:10:32.557Z,73.00
2019-02-14T08:13:01.201Z,70.60
2019-02-14T08:15:29.672Z,71.10
2019-02-14T08:17:58.100Z,71.00
2019-02-14T08:20:26.500Z,68.20
2019-02-14T08:22:54.974Z,67.60
2019-02-14T08:25:23.385Z,66.00
2019-02-14T08:27:51.787Z,67.70
2019-02-14T08:30:20.831Z,68.00
2019-02-14T08:32:49.300Z,68.20
2019-02-14T08:35:17.705Z,66.70
2019-02-14T08:37:46.291Z,67.20
2019-02-14T08:40:29.652Z,67.10
2019-02-14T08:42:58.783Z,63.30
2019-02-14T08:45:27.361Z,63.30
2019-02-14T08:47:55.759Z,63.10
2019-02-14T08:50:24.160Z,62.80
2019-02-14T08:52:52.574Z,61.10
2019-02-14T08:55:21.009Z,62.00
2019-02-14T08:57:49.409Z,62.30
2019-02-14T09:00:17.885Z,62.20
2019-02-14T09:02:46.293Z,60.40
2019-02-14T09:05:14.699Z,58.50
2019-02-14T09:07:43.097Z,56.80
2019-02-14T09:10:16.497Z,58.30
2019-02-14T09:12:44.888Z,61.70
2019-02-14T09:15:15.092Z,60.00
2019-02-14T09:17:43.571Z,58.70
2019-02-14T09:20:24.008Z,60.90
2019-02-14T09:22:52.418Z,60.80
2019-02-14T09:25:20.852Z,61.10
2019-02-14T09:27:49.248Z,59.60
2019-02-14T09:30:17.719Z,58.30
2019-02-14T09:32:46.395Z,57.50
2019-02-14T09:35:14.791Z,59.20
2019-02-14T09:37:43.196Z,61.00
2019-02-14T09:40:18.192Z,60.40
2019-02-14T09:42:46.581Z,62.50
2019-02-14T09:45:15.196Z,62.60
2019-02-14T09:47:43.594Z,60.50
2019-02-14T09:50:14.130Z,58.40
2019-02-14T09:52:42.513Z,57.60
2019-02-14T09:55:12.244Z,58.40
2019-02-14T09:57:40.645Z,56.70
2019-02-14T10:00:12.198Z,56.10
2019-02-14T10:02:40.590Z,58.90
2019-02-14T10:05:10.026Z,58.60
2019-02-14T10:07:38.472Z,59.10
2019-02-14T10:10:10.277Z,58.40
2019-02-14T10:12:38.665Z,61.20
2019-02-14T10:15:08.913Z,57.60
2019-02-14T10:17:37.323Z,59.40
2019-02-14T10:20:11.532Z,63.90
2019-02-14T10:22:39.932Z,59.80
2019-02-14T10:25:08.430Z,58.70
2019-02-14T10:30:22.349Z,57.90
2019-02-14T10:32:50.801Z,59.10
2019-02-14T10:35:19.199Z,58.30
2019-02-14T10:37:47.676Z,59.50
2019-02-14T10:40:16.889Z,58.20
2019-02-14T10:42:45.279Z,60.10
2019-02-14T10:45:21.934Z,59.70
2019-02-14T10:47:50.330Z,59.50
2019-02-14T10:50:18.815Z,56.00
2019-02-14T10:52:47.236Z,54.30
2019-02-14T10:55:16.282Z,54.80
2019-02-14T10:57:44.813Z,55.20
2019-02-14T11:00:19.057Z,58.10
2019-02-14T11:02:47.917Z,56.70
2019-02-14T11:05:17.068Z,56.70
2019-02-14T11:07:45.473Z,57.00
2019-02-14T11:10:14.824Z,57.50
2019-02-14T11:12:43.368Z,60.10
2019-02-14T11:15:20.991Z,61.90
2019-02-14T11:17:49.470Z,64.10
2019-02-14T11:20:18.235Z,64.90
2019-02-14T11:22:48.834Z,65.00
2019-02-14T11:25:38.200Z,61.60
2019-02-14T11:28:07.050Z,61.40
2019-02-14T11:30:35.474Z,59.70
2019-02-14T11:33:03.860Z,61.10
2019-02-14T11:35:32.373Z,59.70
2019-02-14T11:38:00.769Z,57.80
2019-02-14T11:40:29.204Z,54.60
2019-02-14T11:42:57.595Z,50.30
2019-02-14T11:45:26.166Z,45.80
2019-02-14T11:47:54.574Z,44.50
2019-02-14T11:50:22.981Z,49.20
2019-02-14T11:52:51.436Z,48.60
2019-02-14T11:55:19.948Z,49.10
2019-02-14T11:57:48.375Z,50.00
2019-02-14T12:00:22.803Z,53.40
2019-02-14T12:02:55.512Z,54.90
2019-02-14T12:05:21.285Z,56.30
2019-02-14T12:07:49.693Z,57.70
2019-02-14T12:10:18.108Z,58.90
2019-02-14T12:12:46.513Z,60.40
2019-02-14T12:15:14.990Z,61.20
2019-02-14T12:17:43.425Z,63.90
2019-02-14T12:20:14.186Z,67.10
2019-02-14T12:22:46.807Z,65.90
2019-02-14T12:25:24.205Z,65.70
2019-02-14T12:27:52.600Z,66.60
2019-02-14T12:30:22.180Z,67.90
2019-02-14T12:32:50.578Z,68.60
2019-02-14T12:35:19.019Z,70.10
2019-02-14T12:37:47.433Z,70.70
2019-02-14T12:40:15.821Z,71.20
2019-02-14T12:42:44.311Z,71.80
2019-02-14T12:45:26.346Z,72.50
2019-02-14T12:47:54.711Z,73.60
2019-02-14T12:50:23.120Z,72.50
2019-02-14T12:52:51.524Z,73.20
2019-02-14T12:55:19.935Z,73.20
2019-02-14T12:57:48.380Z,73.30
2019-02-14T13:00:21.782Z,73.70
2019-02-14T13:02:50.253Z,75.00
2019-02-14T13:05:18.657Z,75.40
2019-02-14T13:07:47.131Z,76.40
2019-02-14T13:10:17.168Z,76.60
2019-02-14T13:12:45.605Z,77.80
2019-02-14T13:15:25.582Z,77.30
2019-02-14T13:17:54.013Z,77.00
2019-02-14T13:20:22.413Z,77.00
2019-02-14T13:22:50.818Z,76.90
2019-02-14T13:25:19.232Z,77.90
2019-02-14T13:27:47.698Z,77.80
2019-02-14T13:30:24.715Z,79.20
2019-02-14T13:32:53.110Z,80.20
2019-02-14T13:35:21.584Z,80.70
2019-02-14T13:37:50.064Z,81.50
2019-02-14T13:40:18.481Z,81.50
2019-02-14T13:42:46.921Z,81.40
2019-02-14T13:45:21.501Z,81.90
2019-02-14T13:47:49.930Z,82.20
2019-02-14T13:50:18.306Z,82.70
2019-02-14T13:52:46.723Z,82.90
2019-02-14T13:55:15.308Z,83.20
2019-02-14T13:57:43.797Z,83.10
2019-02-14T14:00:24.580Z,83.60
2019-02-14T14:02:52.983Z,83.40
2019-02-14T14:05:21.396Z,83.30
2019-02-14T14:07:49.798Z,83.30
2019-02-14T14:10:18.264Z,83.40
2019-02-14T14:12:46.753Z,83.60
2019-02-14T14:15:15.178Z,84.20
2019-02-14T14:17:43.601Z,84.70
2019-02-14T14:20:12.000Z,84.60
2019-02-14T14:22:40.403Z,85.00
2019-02-14T14:25:11.758Z,85.40
2019-02-14T14:27:40.239Z,85.90
2019-02-14T14:30:11.174Z,86.20
2019-02-14T14:32:40.417Z,86.50
2019-02-14T14:35:10.994Z,86.40
2019-02-14T14:37:39.763Z,86.60
2019-02-14T14:40:10.944Z,87.10
2019-02-14T14:42:46.549Z,87.20
2019-02-14T14:45:16.658Z,87.90
2019-02-14T14:47:45.062Z,88.00
2019-02-14T14:50:13.469Z,88.10
2019-02-14T14:52:41.862Z,88.70
2019-02-14T14:55:10.304Z,88.70
2019-02-14T14:57:38.703Z,88.50
2019-02-14T15:00:09.326Z,88.30
2019-02-14T15:02:37.734Z,88.20
2019-02-14T15:05:06.501Z,87.90
2019-02-14T15:07:36.130Z,87.70
2019-02-14T15:10:05.845Z,87.90
2019-02-14T15:12:34.245Z,87.80
2019-02-14T15:15:02.646Z,88.10
2019-02-14T15:17:31.047Z,88.00
2019-02-14T15:19:59.540Z,88.30
2019-02-14T15:22:27.944Z,88.40
2019-02-14T15:24:56.400Z,88.40
2019-02-14T15:27:24.825Z,88.50
2019-02-14T15:29:53.238Z,88.70
2019-02-14T15:32:21.673Z,88.90
2019-02-14T15:34:50.991Z,89.00
2019-02-14T15:37:19.464Z,89.30
2019-02-14T15:39:47.857Z,89.50
2019-02-14T15:42:16.293Z,89.40
2019-02-14T15:44:44.729Z,89.40
2019-02-14T15:47:13.137Z,89.40
2019-02-14T15:49:41.549Z,89.60
2019-02-14T15:52:10.027Z,89.90
2019-02-14T15:54:38.455Z,90.00
2019-02-14T15:57:06.902Z,90.20
2019-02-14T15:59:35.288Z,90.30
2019-02-14T16:02:04.262Z,90.40
2019-02-14T16:04:33.752Z,90.50
2019-02-14T16:07:02.163Z,90.50
2019-02-14T16:09:30.600Z,90.50
2019-02-14T16:11:59.077Z,90.60
2019-02-14T16:14:27.475Z,90.70
2019-02-14T16:16:55.884Z,90.80
2019-02-14T16:19:24.405Z,90.80
2019-02-14T16:21:54.262Z,90.80
2019-02-14T16:24:22.871Z,90.90
2019-02-14T16:26:51.306Z,91.10
2019-02-14T16:29:19.715Z,91.00
2019-02-14T16:31:48.114Z,91.00
2019-02-14T16:34:16.614Z,91.10
2019-02-14T16:36:45.909Z,91.20
2019-02-14T16:39:14.312Z,91.20
2019-02-14T16:41:42.714Z,91.20
2019-02-14T16:44:11.116Z,91.30
2019-02-14T16:46:39.544Z,91.20
2019-02-14T16:49:07.940Z,91.30
2019-02-14T16:51:36.349Z,91.50
2019-02-14T16:54:04.748Z,91.60
2019-02-14T16:56:33.148Z,91.80
2019-02-14T16:59:01.585Z,91.90
2019-02-14T17:01:29.977Z,92.00
2019-02-14T17:03:58.450Z,92.10
2019-02-14T17:06:26.916Z,92.30
2019-02-14T17:08:55.593Z,92.50
2019-02-14T17:11:24.022Z,92.60
2019-02-14T17:13:52.489Z,92.80
2019-02-14T17:16:21.032Z,92.90
2019-02-14T17:18:49.441Z,93.10
2019-02-14T17:21:17.977Z,93.20
2019-02-14T17:23:46.407Z,93.30
2019-02-14T17:26:14.810Z,93.50
2019-02-14T17:28:43.217Z,93.60
2019-02-14T17:31:11.677Z,93.70
2019-02-14T17:33:40.027Z,93.70
2019-02-14T17:36:08.443Z,93.80
2019-02-14T17:38:36.841Z,93.90
2019-02-14T17:41:05.244Z,94.10
2019-02-14T17:43:33.714Z,94.20
2019-02-14T17:46:02.198Z,94.30
2019-02-14T17:48:30.685Z,94.40
2019-02-14T17:50:59.080Z,94.50
2019-02-14T17:53:27.478Z,94.70
2019-02-14T17:55:55.992Z,94.80
2019-02-14T17:58:24.416Z,94.90
2019-02-14T18:00:52.938Z,95.30
2019-02-14T18:03:21.349Z,95.10
2019-02-14T18:05:49.731Z,95.10
2019-02-14T18:08:18.201Z,95.10
2019-02-14T18:10:54.545Z,95.10
2019-02-14T18:13:16.870Z,95.10
2019-02-14T18:15:45.270Z,95.40
2019-02-14T18:18:13.665Z,95.40
2019-02-14T18:20:43.221Z,95.40
2019-02-14T18:23:11.769Z,95.30
2019-02-14T18:25:40.192Z,95.20
2019-02-14T18:28:08.590Z,95.30
2019-02-14T18:30:36.985Z,95.40
2019-02-14T18:33:05.448Z,95.40
2019-02-14T18:35:33.830Z,95.60
2019-02-14T18:38:02.260Z,95.80
2019-02-14T18:40:30.666Z,96.00
2019-02-14T18:42:59.066Z,96.40
2019-02-14T18:45:27.476Z,96.70
2019-02-14T18:47:55.901Z,96.90
2019-02-14T18:50:24.334Z,97.00
2019-02-14T18:52:52.929Z,96.90
2019-02-14T18:55:21.397Z,96.90
2019-02-14T18:57:49.796Z,96.90
2019-02-14T19:00:19.538Z,96.90
2019-02-14T19:02:47.973Z,96.90
2019-02-14T19:05:16.539Z,97.10
2019-02-14T19:07:45.034Z,97.50
2019-02-14T19:10:15.381Z,97.30
2019-02-14T19:12:44.514Z,97.40
2019-02-14T19:15:13.543Z,97.70
2019-02-14T19:17:42.106Z,97.90
2019-02-14T19:20:11.438Z,98.00
2019-02-14T19:22:41.078Z,98.30
2019-02-14T19:25:09.615Z,98.60
2019-02-14T19:27:39.165Z,98.80
2019-02-14T19:30:11.654Z,99.00
2019-02-14T19:32:40.150Z,99.40
2019-02-14T19:35:09.404Z,99.70
2019-02-14T19:37:37.810Z,99.90
2019-02-14T19:40:08.450Z,99.90
2019-02-14T19:43:00.045Z,99.90
2019-02-14T19:45:36.378Z,99.90
2019-02-14T19:47:58.566Z,99.90
2019-02-14T19:50:26.968Z,99.90
2019-02-14T19:52:55.374Z,99.90
2019-02-14T19:55:23.777Z,99.90
2019-02-14T19:57:52.225Z,99.90
2019-02-14T20:00:20.638Z,99.90
2019-02-14T20:02:49.034Z,99.90
2019-02-14T20:05:17.480Z,99.90
2019-02-14T20:07:45.865Z,99.90
2019-02-14T20:10:15.141Z,99.90
2019-02-14T20:12:43.533Z,99.90
2019-02-14T20:15:14.472Z,99.90
2019-02-14T20:17:42.876Z,99.90
2019-02-14T20:20:11.348Z,99.90
2019-02-14T20:22:39.779Z,99.90
2019-02-14T20:25:14.244Z,99.90
2019-02-14T20:27:42.684Z,99.90
2019-02-14T20:30:11.088Z,99.90
2019-02-14T20:32:39.496Z,99.90
2019-02-14T20:35:08.861Z,99.90
2019-02-14T20:37:37.261Z,99.90
2019-02-14T20:40:08.307Z,99.90
2019-02-14T20:42:36.708Z,99.90
2019-02-14T20:45:08.226Z,99.90
2019-02-14T20:47:36.656Z,99.90
2019-02-14T20:50:08.356Z,99.90
2019-02-14T20:52:36.805Z,99.90
2019-02-14T20:55:08.611Z,99.90
2019-02-14T20:57:37.017Z,99.90
2019-02-14T21:00:10.548Z,99.90
2019-02-14T21:02:38.951Z,99.90
2019-02-14T21:05:07.507Z,99.90
2019-02-14T21:07:36.843Z,99.90
2019-02-14T21:10:06.888Z,99.90
2019-02-14T21:12:35.396Z,99.90
2019-02-14T21:15:04.251Z,99.90
2019-02-14T21:17:32.761Z,99.90
2019-02-14T21:20:01.233Z,99.90
2019-02-14T21:22:29.626Z,99.90
2019-02-14T21:24:58.063Z,99.90
2019-02-14T21:27:27.433Z,99.90
2019-02-14T21:29:55.882Z,99.90
2019-02-14T21:32:24.401Z,99.90
2019-02-14T21:34:52.900Z,99.90
2019-02-14T21:37:21.333Z,99.90
2019-02-14T21:39:49.733Z,99.90
2019-02-14T21:42:21.992Z,99.90
2019-02-14T21:44:49.166Z,99.90
2019-02-14T21:47:17.624Z,99.90
2019-02-14T21:49:46.047Z,99.90
2019-02-14T21:52:14.461Z,99.90
2019-02-14T21:54:42.861Z,99.90
2019-02-14T21:57:11.262Z,99.90
2019-02-14T21:59:39.677Z,99.90
2019-02-14T22:02:08.133Z,99.90
2019-02-14T22:04:36.513Z,99.90
2019-02-14T22:07:05.291Z,99.90
2019-02-14T22:09:33.686Z,99.90
2019-02-14T22:12:02.159Z,99.90
2019-02-14T22:14:30.743Z,99.90
2019-02-14T22:16:59.193Z,99.90
2019-02-14T22:19:27.680Z,99.90
2019-02-14T22:21:56.088Z,99.90
2019-02-14T22:24:24.552Z,99.90
2019-02-14T22:26:52.998Z,99.90
2019-02-14T22:29:21.402Z,99.90
2019-02-14T22:31:49.804Z,99.90
2019-02-14T22:34:18.210Z,99.90
2019-02-14T22:36:46.640Z,99.90
2019-02-14T22:39:15.118Z,99.90
2019-02-14T22:41:43.511Z,99.90
2019-02-14T22:44:11.921Z,99.90
2019-02-14T22:46:40.348Z,99.90
2019-02-14T22:49:08.751Z,99.90
2019-02-14T22:51:37.260Z,99.90
2019-02-14T22:54:05.660Z,99.90
2019-02-14T22:56:34.049Z,99.90
2019-02-14T22:59:02.455Z,99.90
2019-02-14T23:01:30.865Z,99.90
2019-02-14T23:03:59.348Z,99.90
2019-02-14T23:06:27.758Z,99.90
2019-02-14T23:08:56.184Z,99.90
2019-02-14T23:11:24.613Z,99.90
2019-02-14T23:13:53.009Z,99.90
2019-02-14T23:16:21.418Z,99.90
2019-02-14T23:18:49.820Z,99.90
2019-02-14T23:21:18.317Z,99.90
2019-02-14T23:23:46.712Z,99.90
2019-02-14T23:26:15.192Z,99.90
2019-02-14T23:28:43.605Z,99.90
2019-02-14T23:31:12.008Z,99.90
2019-02-14T23:33:40.442Z,99.90
2019-02-14T23:36:08.848Z,99.90
2019-02-14T23:38:37.248Z,99.90
2019-02-14T23:41:05.656Z,99.90
2019-02-14T23:43:35.255Z,99.90
2019-02-14T23:46:03.712Z,99.90
2019-02-14T23:48:32.113Z,99.90
2019-02-14T23:51:00.515Z,99.90
2019-02-14T23:53:28.941Z,99.90
2019-02-14T23:55:57.417Z,99.90
2019-02-14T23:58:25.852Z,99.90
